sensor_id;sensor_type;location;lat;lon;timestamp;P1;durP1;ratioP1;P2;durP2;ratioP2
43098;SDS011;28715;51.988;6.020;2023-01-28T00:00:33;11.02;;;7.38;;
43098;SDS011;28715;51.988;6.020;2023-01-28T00:02:59;11.23;;;7.65;;
43098;SDS011;28715;51.988;6.020;2023-01-28T00:05:25;11.30;;;7.00;;
43098;SDS011;28715;51.988;6.020;2023-01-28T00:07:50;10.50;;;7.10;;
43098;SDS011;28715;51.988;6.020;2023-01-28T00:10:16;10.63;;;6.80;;
43098;SDS011;28715;51.988;6.020;2023-01-28T00:12:42;9.70;;;6.65;;
43098;SDS011;28715;51.988;6.020;2023-01-28T00:15:08;11.60;;;6.97;;
43098;SDS011;28715;51.988;6.020;2023-01-28T00:17:35;10.82;;;6.88;;
43098;SDS011;28715;51.988;6.020;2023-01-28T00:20:05;11.38;;;7.65;;
43098;SDS011;28715;51.988;6.020;2023-01-28T00:22:31;11.87;;;7.30;;
43098;SDS011;28715;51.988;6.020;2023-01-28T00:24:57;11.13;;;7.15;;
43098;SDS011;28715;51.988;6.020;2023-01-28T00:27:23;11.97;;;7.30;;
43098;SDS011;28715;51.988;6.020;2023-01-28T00:29:49;11.67;;;6.73;;
43098;SDS011;28715;51.988;6.020;2023-01-28T00:32:14;11.57;;;6.93;;
43098;SDS011;28715;51.988;6.020;2023-01-28T00:34:40;11.03;;;7.20;;
43098;SDS011;28715;51.988;6.020;2023-01-28T00:37:06;11.90;;;7.33;;
43098;SDS011;28715;51.988;6.020;2023-01-28T00:39:32;12.47;;;7.20;;
43098;SDS011;28715;51.988;6.020;2023-01-28T00:41:57;10.37;;;6.63;;
43098;SDS011;28715;51.988;6.020;2023-01-28T00:44:23;11.27;;;7.10;;
43098;SDS011;28715;51.988;6.020;2023-01-28T00:46:49;10.67;;;6.80;;
43098;SDS011;28715;51.988;6.020;2023-01-28T00:49:14;11.60;;;6.80;;
43098;SDS011;28715;51.988;6.020;2023-01-28T00:51:40;10.93;;;7.03;;
43098;SDS011;28715;51.988;6.020;2023-01-28T00:54:05;12.07;;;7.23;;
43098;SDS011;28715;51.988;6.020;2023-01-28T00:56:31;10.67;;;6.23;;
43098;SDS011;28715;51.988;6.020;2023-01-28T00:58:57;11.67;;;7.23;;
43098;SDS011;28715;51.988;6.020;2023-01-28T01:01:23;11.03;;;6.70;;
43098;SDS011;28715;51.988;6.020;2023-01-28T01:03:51;11.73;;;7.00;;
43098;SDS011;28715;51.988;6.020;2023-01-28T01:06:36;11.27;;;6.88;;
43098;SDS011;28715;51.988;6.020;2023-01-28T01:09:04;11.18;;;6.75;;
43098;SDS011;28715;51.988;6.020;2023-01-28T01:11:32;11.05;;;6.68;;
43098;SDS011;28715;51.988;6.020;2023-01-28T01:13:58;11.10;;;6.83;;
43098;SDS011;28715;51.988;6.020;2023-01-28T01:16:26;11.15;;;6.35;;
43098;SDS011;28715;51.988;6.020;2023-01-28T01:18:54;10.52;;;6.40;;
43098;SDS011;28715;51.988;6.020;2023-01-28T01:21:22;10.48;;;6.68;;
43098;SDS011;28715;51.988;6.020;2023-01-28T01:23:50;10.47;;;6.57;;
43098;SDS011;28715;51.988;6.020;2023-01-28T01:26:16;12.88;;;7.57;;
43098;SDS011;28715;51.988;6.020;2023-01-28T01:28:42;12.05;;;7.70;;
43098;SDS011;28715;51.988;6.020;2023-01-28T01:31:12;13.13;;;8.23;;
43098;SDS011;28715;51.988;6.020;2023-01-28T01:33:42;12.82;;;7.63;;
43098;SDS011;28715;51.988;6.020;2023-01-28T01:38:36;13.57;;;7.85;;
43098;SDS011;28715;51.988;6.020;2023-01-28T01:41:03;12.57;;;7.40;;
43098;SDS011;28715;51.988;6.020;2023-01-28T01:43:52;12.77;;;7.47;;
43098;SDS011;28715;51.988;6.020;2023-01-28T01:46:25;11.85;;;7.28;;
43098;SDS011;28715;51.988;6.020;2023-01-28T01:49:12;11.45;;;6.97;;
43098;SDS011;28715;51.988;6.020;2023-01-28T01:51:48;12.32;;;7.20;;
43098;SDS011;28715;51.988;6.020;2023-01-28T01:54:35;12.90;;;7.78;;
43098;SDS011;28715;51.988;6.020;2023-01-28T01:57:05;12.88;;;8.05;;
43098;SDS011;28715;51.988;6.020;2023-01-28T01:59:33;12.73;;;7.72;;
43098;SDS011;28715;51.988;6.020;2023-01-28T02:02:01;12.57;;;7.93;;
43098;SDS011;28715;51.988;6.020;2023-01-28T02:04:35;13.13;;;7.70;;
43098;SDS011;28715;51.988;6.020;2023-01-28T02:07:04;14.02;;;7.82;;
43098;SDS011;28715;51.988;6.020;2023-01-28T02:09:33;13.80;;;7.28;;
43098;SDS011;28715;51.988;6.020;2023-01-28T02:12:05;13.05;;;7.90;;
43098;SDS011;28715;51.988;6.020;2023-01-28T02:14:38;12.57;;;7.05;;
43098;SDS011;28715;51.988;6.020;2023-01-28T02:17:08;12.48;;;7.72;;
43098;SDS011;28715;51.988;6.020;2023-01-28T02:19:39;13.67;;;8.20;;
43098;SDS011;28715;51.988;6.020;2023-01-28T02:30:24;15.25;;;7.60;;
43098;SDS011;28715;51.988;6.020;2023-01-28T02:32:58;13.77;;;7.65;;
43098;SDS011;28715;51.988;6.020;2023-01-28T02:35:48;12.07;;;7.15;;
43098;SDS011;28715;51.988;6.020;2023-01-28T02:38:18;12.18;;;7.43;;
43098;SDS011;28715;51.988;6.020;2023-01-28T02:40:53;13.90;;;8.18;;
43098;SDS011;28715;51.988;6.020;2023-01-28T02:43:33;13.50;;;8.55;;
43098;SDS011;28715;51.988;6.020;2023-01-28T02:46:02;14.23;;;8.40;;
43098;SDS011;28715;51.988;6.020;2023-01-28T02:49:01;12.57;;;8.02;;
43098;SDS011;28715;51.988;6.020;2023-01-28T02:54:11;13.43;;;8.02;;
43098;SDS011;28715;51.988;6.020;2023-01-28T02:59:27;13.10;;;8.00;;
43098;SDS011;28715;51.988;6.020;2023-01-28T03:05:06;15.52;;;8.95;;
43098;SDS011;28715;51.988;6.020;2023-01-28T03:07:46;14.73;;;8.63;;
43098;SDS011;28715;51.988;6.020;2023-01-28T03:10:15;15.00;;;8.43;;
43098;SDS011;28715;51.988;6.020;2023-01-28T03:12:44;16.25;;;9.45;;
43098;SDS011;28715;51.988;6.020;2023-01-28T03:15:34;16.30;;;8.93;;
43098;SDS011;28715;51.988;6.020;2023-01-28T03:18:27;16.98;;;9.38;;
43098;SDS011;28715;51.988;6.020;2023-01-28T03:21:21;15.55;;;9.18;;
43098;SDS011;28715;51.988;6.020;2023-01-28T03:24:13;16.67;;;9.18;;
43098;SDS011;28715;51.988;6.020;2023-01-28T03:27:13;15.70;;;8.90;;
43098;SDS011;28715;51.988;6.020;2023-01-28T03:30:13;15.00;;;8.45;;
43098;SDS011;28715;51.988;6.020;2023-01-28T03:33:03;13.77;;;8.05;;
43098;SDS011;28715;51.988;6.020;2023-01-28T03:35:48;14.20;;;8.20;;
43098;SDS011;28715;51.988;6.020;2023-01-28T03:38:32;14.40;;;8.48;;
43098;SDS011;28715;51.988;6.020;2023-01-28T03:41:06;13.20;;;7.72;;
43098;SDS011;28715;51.988;6.020;2023-01-28T03:43:34;12.95;;;7.50;;
43098;SDS011;28715;51.988;6.020;2023-01-28T03:46:00;11.60;;;7.28;;
43098;SDS011;28715;51.988;6.020;2023-01-28T03:48:27;12.88;;;7.93;;
43098;SDS011;28715;51.988;6.020;2023-01-28T03:50:54;12.75;;;7.25;;
43098;SDS011;28715;51.988;6.020;2023-01-28T03:53:20;13.48;;;7.72;;
43098;SDS011;28715;51.988;6.020;2023-01-28T03:55:47;13.43;;;7.50;;
43098;SDS011;28715;51.988;6.020;2023-01-28T03:58:14;12.80;;;7.90;;
43098;SDS011;28715;51.988;6.020;2023-01-28T04:00:41;13.75;;;8.30;;
43098;SDS011;28715;51.988;6.020;2023-01-28T04:03:07;13.90;;;8.60;;
43098;SDS011;28715;51.988;6.020;2023-01-28T04:05:42;13.23;;;7.80;;
43098;SDS011;28715;51.988;6.020;2023-01-28T04:08:21;14.85;;;8.45;;
43098;SDS011;28715;51.988;6.020;2023-01-28T04:10:46;15.77;;;8.60;;
43098;SDS011;28715;51.988;6.020;2023-01-28T04:13:12;14.03;;;8.83;;
43098;SDS011;28715;51.988;6.020;2023-01-28T04:15:37;14.77;;;8.50;;
43098;SDS011;28715;51.988;6.020;2023-01-28T04:18:03;15.27;;;8.70;;
43098;SDS011;28715;51.988;6.020;2023-01-28T04:20:29;14.77;;;8.50;;
43098;SDS011;28715;51.988;6.020;2023-01-28T04:22:54;14.80;;;8.77;;
43098;SDS011;28715;51.988;6.020;2023-01-28T04:25:20;15.47;;;8.70;;
43098;SDS011;28715;51.988;6.020;2023-01-28T04:27:45;16.50;;;9.63;;
43098;SDS011;28715;51.988;6.020;2023-01-28T04:30:11;15.97;;;8.97;;
43098;SDS011;28715;51.988;6.020;2023-01-28T04:32:37;15.07;;;9.17;;
43098;SDS011;28715;51.988;6.020;2023-01-28T04:35:02;15.23;;;8.50;;
43098;SDS011;28715;51.988;6.020;2023-01-28T04:37:28;16.93;;;9.47;;
43098;SDS011;28715;51.988;6.020;2023-01-28T04:39:54;17.27;;;9.50;;
43098;SDS011;28715;51.988;6.020;2023-01-28T04:42:19;16.13;;;9.40;;
43098;SDS011;28715;51.988;6.020;2023-01-28T04:44:45;15.53;;;9.27;;
43098;SDS011;28715;51.988;6.020;2023-01-28T04:47:10;17.83;;;10.33;;
43098;SDS011;28715;51.988;6.020;2023-01-28T04:49:36;15.47;;;9.00;;
43098;SDS011;28715;51.988;6.020;2023-01-28T04:52:01;16.57;;;9.50;;
43098;SDS011;28715;51.988;6.020;2023-01-28T04:54:27;16.73;;;9.60;;
43098;SDS011;28715;51.988;6.020;2023-01-28T04:56:52;17.97;;;9.90;;
43098;SDS011;28715;51.988;6.020;2023-01-28T04:59:18;19.10;;;10.43;;
43098;SDS011;28715;51.988;6.020;2023-01-28T05:01:44;19.03;;;10.87;;
43098;SDS011;28715;51.988;6.020;2023-01-28T05:04:09;18.70;;;10.17;;
43098;SDS011;28715;51.988;6.020;2023-01-28T05:06:35;17.93;;;10.23;;
43098;SDS011;28715;51.988;6.020;2023-01-28T05:09:01;21.47;;;10.70;;
43098;SDS011;28715;51.988;6.020;2023-01-28T05:11:26;19.23;;;10.10;;
43098;SDS011;28715;51.988;6.020;2023-01-28T05:13:53;19.17;;;10.07;;
43098;SDS011;28715;51.988;6.020;2023-01-28T05:16:18;19.65;;;10.20;;
43098;SDS011;28715;51.988;6.020;2023-01-28T05:18:44;17.27;;;9.77;;
43098;SDS011;28715;51.988;6.020;2023-01-28T05:21:12;19.27;;;10.60;;
43098;SDS011;28715;51.988;6.020;2023-01-28T05:23:37;18.73;;;10.90;;
43098;SDS011;28715;51.988;6.020;2023-01-28T05:26:03;19.10;;;10.70;;
43098;SDS011;28715;51.988;6.020;2023-01-28T05:28:29;19.17;;;10.82;;
43098;SDS011;28715;51.988;6.020;2023-01-28T05:30:55;19.23;;;10.80;;
43098;SDS011;28715;51.988;6.020;2023-01-28T05:33:21;20.80;;;10.90;;
43098;SDS011;28715;51.988;6.020;2023-01-28T05:35:46;19.10;;;10.50;;
43098;SDS011;28715;51.988;6.020;2023-01-28T05:38:13;18.88;;;9.85;;
43098;SDS011;28715;51.988;6.020;2023-01-28T05:40:39;19.93;;;10.43;;
43098;SDS011;28715;51.988;6.020;2023-01-28T05:43:04;20.17;;;11.37;;
43098;SDS011;28715;51.988;6.020;2023-01-28T05:45:30;18.40;;;10.27;;
43098;SDS011;28715;51.988;6.020;2023-01-28T05:47:55;19.23;;;10.20;;
43098;SDS011;28715;51.988;6.020;2023-01-28T05:50:21;21.00;;;11.33;;
43098;SDS011;28715;51.988;6.020;2023-01-28T05:52:47;19.70;;;10.57;;
43098;SDS011;28715;51.988;6.020;2023-01-28T05:55:12;19.17;;;10.63;;
43098;SDS011;28715;51.988;6.020;2023-01-28T05:57:38;18.57;;;10.90;;
43098;SDS011;28715;51.988;6.020;2023-01-28T06:00:04;21.27;;;10.67;;
43098;SDS011;28715;51.988;6.020;2023-01-28T06:02:30;21.65;;;11.00;;
43098;SDS011;28715;51.988;6.020;2023-01-28T06:04:55;20.47;;;11.23;;
43098;SDS011;28715;51.988;6.020;2023-01-28T06:07:21;20.23;;;11.13;;
43098;SDS011;28715;51.988;6.020;2023-01-28T06:09:47;18.73;;;10.15;;
43098;SDS011;28715;51.988;6.020;2023-01-28T06:12:13;19.50;;;10.77;;
43098;SDS011;28715;51.988;6.020;2023-01-28T06:14:39;17.77;;;10.07;;
43098;SDS011;28715;51.988;6.020;2023-01-28T06:17:04;19.50;;;11.17;;
43098;SDS011;28715;51.988;6.020;2023-01-28T06:19:30;19.33;;;11.20;;
43098;SDS011;28715;51.988;6.020;2023-01-28T06:21:55;21.30;;;10.73;;
43098;SDS011;28715;51.988;6.020;2023-01-28T06:24:21;24.83;;;10.73;;
43098;SDS011;28715;51.988;6.020;2023-01-28T06:26:46;18.47;;;11.07;;
43098;SDS011;28715;51.988;6.020;2023-01-28T06:29:12;19.47;;;10.40;;
43098;SDS011;28715;51.988;6.020;2023-01-28T06:31:37;18.80;;;10.33;;
43098;SDS011;28715;51.988;6.020;2023-01-28T06:34:03;19.63;;;11.03;;
43098;SDS011;28715;51.988;6.020;2023-01-28T06:36:29;20.60;;;10.87;;
43098;SDS011;28715;51.988;6.020;2023-01-28T06:38:55;21.48;;;12.10;;
43098;SDS011;28715;51.988;6.020;2023-01-28T06:41:21;19.75;;;11.10;;
43098;SDS011;28715;51.988;6.020;2023-01-28T06:43:46;19.57;;;11.23;;
43098;SDS011;28715;51.988;6.020;2023-01-28T06:46:12;17.80;;;10.40;;
43098;SDS011;28715;51.988;6.020;2023-01-28T06:48:37;20.70;;;11.97;;
43098;SDS011;28715;51.988;6.020;2023-01-28T06:51:03;21.63;;;11.87;;
43098;SDS011;28715;51.988;6.020;2023-01-28T06:53:29;20.17;;;11.63;;
43098;SDS011;28715;51.988;6.020;2023-01-28T06:55:54;20.37;;;11.47;;
43098;SDS011;28715;51.988;6.020;2023-01-28T06:58:20;23.10;;;11.50;;
43098;SDS011;28715;51.988;6.020;2023-01-28T07:00:46;20.40;;;11.90;;
43098;SDS011;28715;51.988;6.020;2023-01-28T07:03:11;22.00;;;11.77;;
43098;SDS011;28715;51.988;6.020;2023-01-28T07:05:37;20.23;;;11.97;;
43098;SDS011;28715;51.988;6.020;2023-01-28T07:08:03;20.60;;;11.87;;
43098;SDS011;28715;51.988;6.020;2023-01-28T07:10:28;19.60;;;11.27;;
43098;SDS011;28715;51.988;6.020;2023-01-28T07:12:54;21.03;;;12.07;;
43098;SDS011;28715;51.988;6.020;2023-01-28T07:15:20;20.40;;;11.17;;
43098;SDS011;28715;51.988;6.020;2023-01-28T07:17:45;21.20;;;11.87;;
43098;SDS011;28715;51.988;6.020;2023-01-28T07:20:12;22.10;;;12.57;;
43098;SDS011;28715;51.988;6.020;2023-01-28T07:22:39;22.48;;;12.52;;
43098;SDS011;28715;51.988;6.020;2023-01-28T07:25:06;22.08;;;11.85;;
43098;SDS011;28715;51.988;6.020;2023-01-28T07:27:33;20.77;;;11.57;;
43098;SDS011;28715;51.988;6.020;2023-01-28T07:29:58;20.77;;;11.33;;
43098;SDS011;28715;51.988;6.020;2023-01-28T07:32:24;22.40;;;13.07;;
43098;SDS011;28715;51.988;6.020;2023-01-28T07:34:51;22.40;;;12.25;;
43098;SDS011;28715;51.988;6.020;2023-01-28T07:37:17;21.80;;;12.55;;
43098;SDS011;28715;51.988;6.020;2023-01-28T07:39:43;21.10;;;12.20;;
43098;SDS011;28715;51.988;6.020;2023-01-28T07:42:09;24.17;;;13.57;;
43098;SDS011;28715;51.988;6.020;2023-01-28T07:44:34;22.27;;;13.10;;
43098;SDS011;28715;51.988;6.020;2023-01-28T07:47:01;23.52;;;13.02;;
43098;SDS011;28715;51.988;6.020;2023-01-28T07:49:27;23.77;;;12.65;;
43098;SDS011;28715;51.988;6.020;2023-01-28T07:51:52;22.67;;;13.10;;
43098;SDS011;28715;51.988;6.020;2023-01-28T07:54:18;20.00;;;11.67;;
43098;SDS011;28715;51.988;6.020;2023-01-28T07:56:43;24.47;;;13.20;;
43098;SDS011;28715;51.988;6.020;2023-01-28T07:59:09;24.67;;;13.73;;
43098;SDS011;28715;51.988;6.020;2023-01-28T08:01:35;22.57;;;12.67;;
43098;SDS011;28715;51.988;6.020;2023-01-28T08:04:00;21.43;;;12.33;;
43098;SDS011;28715;51.988;6.020;2023-01-28T08:06:27;22.80;;;12.20;;
43098;SDS011;28715;51.988;6.020;2023-01-28T08:08:53;22.55;;;12.55;;
43098;SDS011;28715;51.988;6.020;2023-01-28T08:11:19;23.30;;;12.83;;
43098;SDS011;28715;51.988;6.020;2023-01-28T08:13:45;24.10;;;13.57;;
43098;SDS011;28715;51.988;6.020;2023-01-28T08:16:10;21.13;;;12.80;;
43098;SDS011;28715;51.988;6.020;2023-01-28T08:18:36;22.07;;;13.07;;
43098;SDS011;28715;51.988;6.020;2023-01-28T08:21:02;21.80;;;12.97;;
43098;SDS011;28715;51.988;6.020;2023-01-28T08:23:29;22.15;;;12.98;;
43098;SDS011;28715;51.988;6.020;2023-01-28T08:25:57;21.50;;;13.40;;
43098;SDS011;28715;51.988;6.020;2023-01-28T08:28:23;23.00;;;13.50;;
43098;SDS011;28715;51.988;6.020;2023-01-28T08:30:49;24.10;;;12.90;;
43098;SDS011;28715;51.988;6.020;2023-01-28T08:33:14;25.77;;;14.07;;
43098;SDS011;28715;51.988;6.020;2023-01-28T08:35:42;20.73;;;11.98;;
43098;SDS011;28715;51.988;6.020;2023-01-28T08:38:08;22.67;;;13.40;;
43098;SDS011;28715;51.988;6.020;2023-01-28T08:40:35;22.30;;;13.82;;
43098;SDS011;28715;51.988;6.020;2023-01-28T08:43:01;22.50;;;13.33;;
43098;SDS011;28715;51.988;6.020;2023-01-28T08:45:28;22.92;;;13.32;;
43098;SDS011;28715;51.988;6.020;2023-01-28T08:47:58;23.50;;;13.57;;
43098;SDS011;28715;51.988;6.020;2023-01-28T08:50:26;22.13;;;13.38;;
43098;SDS011;28715;51.988;6.020;2023-01-28T08:52:55;22.63;;;12.85;;
43098;SDS011;28715;51.988;6.020;2023-01-28T08:55:21;24.20;;;13.90;;
43098;SDS011;28715;51.988;6.020;2023-01-28T08:57:47;22.20;;;13.17;;
43098;SDS011;28715;51.988;6.020;2023-01-28T09:00:13;23.40;;;13.20;;
43098;SDS011;28715;51.988;6.020;2023-01-28T09:02:39;23.10;;;13.73;;
43098;SDS011;28715;51.988;6.020;2023-01-28T09:05:04;24.73;;;14.00;;
43098;SDS011;28715;51.988;6.020;2023-01-28T09:07:30;24.15;;;13.35;;
43098;SDS011;28715;51.988;6.020;2023-01-28T09:09:58;22.90;;;12.80;;
43098;SDS011;28715;51.988;6.020;2023-01-28T09:12:23;22.53;;;13.60;;
43098;SDS011;28715;51.988;6.020;2023-01-28T09:14:49;21.40;;;12.97;;
43098;SDS011;28715;51.988;6.020;2023-01-28T09:17:16;23.58;;;13.25;;
43098;SDS011;28715;51.988;6.020;2023-01-28T09:19:41;23.43;;;14.03;;
43098;SDS011;28715;51.988;6.020;2023-01-28T09:22:07;22.57;;;13.47;;
43098;SDS011;28715;51.988;6.020;2023-01-28T09:24:33;25.27;;;14.13;;
43098;SDS011;28715;51.988;6.020;2023-01-28T09:26:58;24.80;;;13.98;;
43098;SDS011;28715;51.988;6.020;2023-01-28T09:29:24;23.00;;;13.83;;
43098;SDS011;28715;51.988;6.020;2023-01-28T09:31:49;23.97;;;13.30;;
43098;SDS011;28715;51.988;6.020;2023-01-28T09:34:15;22.57;;;13.30;;
43098;SDS011;28715;51.988;6.020;2023-01-28T09:36:40;21.93;;;13.47;;
43098;SDS011;28715;51.988;6.020;2023-01-28T09:39:06;23.90;;;14.33;;
43098;SDS011;28715;51.988;6.020;2023-01-28T09:41:45;20.90;;;12.50;;
43098;SDS011;28715;51.988;6.020;2023-01-28T09:47:24;18.88;;;12.07;;
43098;SDS011;28715;51.988;6.020;2023-01-28T09:49:54;19.65;;;11.90;;
43098;SDS011;28715;51.988;6.020;2023-01-28T09:52:23;19.88;;;12.07;;
43098;SDS011;28715;51.988;6.020;2023-01-28T09:57:54;21.30;;;12.93;;
43098;SDS011;28715;51.988;6.020;2023-01-28T10:00:22;19.48;;;11.65;;
43098;SDS011;28715;51.988;6.020;2023-01-28T10:05:47;19.17;;;12.10;;
43098;SDS011;28715;51.988;6.020;2023-01-28T10:11:07;21.25;;;12.88;;
43098;SDS011;28715;51.988;6.020;2023-01-28T10:16:49;20.77;;;13.27;;
43098;SDS011;28715;51.988;6.020;2023-01-28T10:19:30;18.73;;;12.50;;
43098;SDS011;28715;51.988;6.020;2023-01-28T10:24:35;19.88;;;12.32;;
43098;SDS011;28715;51.988;6.020;2023-01-28T10:27:15;19.00;;;11.23;;
43098;SDS011;28715;51.988;6.020;2023-01-28T10:29:43;21.55;;;13.63;;
43098;SDS011;28715;51.988;6.020;2023-01-28T10:34:56;19.48;;;12.60;;
43098;SDS011;28715;51.988;6.020;2023-01-28T10:37:26;17.70;;;11.27;;
43098;SDS011;28715;51.988;6.020;2023-01-28T10:39:56;18.08;;;11.85;;
43098;SDS011;28715;51.988;6.020;2023-01-28T10:42:30;18.48;;;11.18;;
43098;SDS011;28715;51.988;6.020;2023-01-28T10:44:58;19.65;;;12.63;;
43098;SDS011;28715;51.988;6.020;2023-01-28T10:47:32;19.27;;;11.95;;
43098;SDS011;28715;51.988;6.020;2023-01-28T10:50:14;17.25;;;10.63;;
43098;SDS011;28715;51.988;6.020;2023-01-28T10:55:18;19.38;;;11.77;;
43098;SDS011;28715;51.988;6.020;2023-01-28T10:57:43;17.73;;;11.27;;
43098;SDS011;28715;51.988;6.020;2023-01-28T11:00:22;18.60;;;11.60;;
43098;SDS011;28715;51.988;6.020;2023-01-28T11:02:54;18.52;;;11.75;;
43098;SDS011;28715;51.988;6.020;2023-01-28T11:05:22;16.90;;;11.45;;
43098;SDS011;28715;51.988;6.020;2023-01-28T11:08:05;16.88;;;11.23;;
43098;SDS011;28715;51.988;6.020;2023-01-28T11:10:39;17.40;;;10.48;;
43098;SDS011;28715;51.988;6.020;2023-01-28T11:13:05;16.13;;;11.40;;
43098;SDS011;28715;51.988;6.020;2023-01-28T11:15:46;16.55;;;12.27;;
43098;SDS011;28715;51.988;6.020;2023-01-28T11:18:17;15.20;;;10.18;;
43098;SDS011;28715;51.988;6.020;2023-01-28T11:20:56;15.02;;;10.30;;
43098;SDS011;28715;51.988;6.020;2023-01-28T11:23:27;15.13;;;9.98;;
43098;SDS011;28715;51.988;6.020;2023-01-28T11:28:33;13.95;;;9.65;;
43098;SDS011;28715;51.988;6.020;2023-01-28T11:31:03;14.82;;;9.82;;
43098;SDS011;28715;51.988;6.020;2023-01-28T11:33:36;15.80;;;10.27;;
43098;SDS011;28715;51.988;6.020;2023-01-28T11:38:29;15.50;;;11.37;;
43098;SDS011;28715;51.988;6.020;2023-01-28T11:40:55;14.70;;;9.37;;
43098;SDS011;28715;51.988;6.020;2023-01-28T11:43:26;13.88;;;9.40;;
43098;SDS011;28715;51.988;6.020;2023-01-28T11:46:16;14.65;;;9.98;;
43098;SDS011;28715;51.988;6.020;2023-01-28T11:51:37;15.25;;;9.90;;
43098;SDS011;28715;51.988;6.020;2023-01-28T11:56:48;14.20;;;9.17;;
43098;SDS011;28715;51.988;6.020;2023-01-28T12:08:47;14.10;;;9.65;;
43098;SDS011;28715;51.988;6.020;2023-01-28T12:11:29;12.43;;;8.07;;
43098;SDS011;28715;51.988;6.020;2023-01-28T12:19:51;13.25;;;8.73;;
43098;SDS011;28715;51.988;6.020;2023-01-28T12:22:33;15.02;;;9.43;;
43098;SDS011;28715;51.988;6.020;2023-01-28T12:25:10;15.23;;;9.75;;
43098;SDS011;28715;51.988;6.020;2023-01-28T12:30:43;18.02;;;11.25;;
43098;SDS011;28715;51.988;6.020;2023-01-28T12:38:34;18.75;;;11.05;;
43098;SDS011;28715;51.988;6.020;2023-01-28T12:47:04;19.08;;;13.48;;
43098;SDS011;28715;51.988;6.020;2023-01-28T12:57:43;17.35;;;11.38;;
43098;SDS011;28715;51.988;6.020;2023-01-28T13:00:24;17.75;;;11.25;;
43098;SDS011;28715;51.988;6.020;2023-01-28T13:06:05;19.05;;;11.82;;
43098;SDS011;28715;51.988;6.020;2023-01-28T13:08:50;19.80;;;12.52;;
43098;SDS011;28715;51.988;6.020;2023-01-28T13:11:23;18.90;;;11.50;;
43098;SDS011;28715;51.988;6.020;2023-01-28T13:13:54;21.55;;;15.93;;
43098;SDS011;28715;51.988;6.020;2023-01-28T13:16:20;18.37;;;10.90;;
43098;SDS011;28715;51.988;6.020;2023-01-28T13:18:45;20.53;;;12.53;;
43098;SDS011;28715;51.988;6.020;2023-01-28T13:24:18;18.65;;;11.82;;
43098;SDS011;28715;51.988;6.020;2023-01-28T13:26:53;18.23;;;11.63;;
43098;SDS011;28715;51.988;6.020;2023-01-28T13:29:26;17.90;;;11.50;;
43098;SDS011;28715;51.988;6.020;2023-01-28T13:31:55;17.40;;;11.80;;
43098;SDS011;28715;51.988;6.020;2023-01-28T13:34:33;16.73;;;10.98;;
43098;SDS011;28715;51.988;6.020;2023-01-28T13:37:23;18.05;;;11.40;;
43098;SDS011;28715;51.988;6.020;2023-01-28T13:42:38;20.05;;;13.02;;
43098;SDS011;28715;51.988;6.020;2023-01-28T13:47:42;18.48;;;11.88;;
43098;SDS011;28715;51.988;6.020;2023-01-28T13:50:20;16.45;;;10.82;;
43098;SDS011;28715;51.988;6.020;2023-01-28T13:52:52;16.90;;;10.40;;
43098;SDS011;28715;51.988;6.020;2023-01-28T13:55:26;19.17;;;11.35;;
43098;SDS011;28715;51.988;6.020;2023-01-28T13:58:08;17.23;;;9.77;;
43098;SDS011;28715;51.988;6.020;2023-01-28T14:09:16;19.25;;;12.77;;
43098;SDS011;28715;51.988;6.020;2023-01-28T14:17:55;18.42;;;10.98;;
43098;SDS011;28715;51.988;6.020;2023-01-28T14:20:26;20.50;;;12.88;;
43098;SDS011;28715;51.988;6.020;2023-01-28T14:23:03;25.00;;;15.80;;
43098;SDS011;28715;51.988;6.020;2023-01-28T14:28:33;23.20;;;13.25;;
43098;SDS011;28715;51.988;6.020;2023-01-28T14:31:15;20.48;;;11.82;;
43098;SDS011;28715;51.988;6.020;2023-01-28T14:33:48;17.88;;;11.25;;
43098;SDS011;28715;51.988;6.020;2023-01-28T14:36:14;19.80;;;12.03;;
43098;SDS011;28715;51.988;6.020;2023-01-28T14:38:41;21.13;;;12.57;;
43098;SDS011;28715;51.988;6.020;2023-01-28T14:41:08;21.45;;;12.00;;
43098;SDS011;28715;51.988;6.020;2023-01-28T14:43:42;19.10;;;11.35;;
43098;SDS011;28715;51.988;6.020;2023-01-28T14:49:01;17.35;;;11.00;;
43098;SDS011;28715;51.988;6.020;2023-01-28T14:57:05;20.13;;;11.77;;
43098;SDS011;28715;51.988;6.020;2023-01-28T14:59:53;16.20;;;9.82;;
43098;SDS011;28715;51.988;6.020;2023-01-28T15:02:26;17.08;;;10.55;;
43098;SDS011;28715;51.988;6.020;2023-01-28T15:04:53;32.88;;;24.27;;
43098;SDS011;28715;51.988;6.020;2023-01-28T15:07:24;18.77;;;12.43;;
43098;SDS011;28715;51.988;6.020;2023-01-28T15:10:03;30.10;;;19.85;;
43098;SDS011;28715;51.988;6.020;2023-01-28T15:12:39;25.27;;;16.98;;
43098;SDS011;28715;51.988;6.020;2023-01-28T15:15:18;33.88;;;25.30;;
43098;SDS011;28715;51.988;6.020;2023-01-28T15:18:22;22.98;;;14.25;;
43098;SDS011;28715;51.988;6.020;2023-01-28T15:20:52;22.42;;;14.65;;
43098;SDS011;28715;51.988;6.020;2023-01-28T15:23:20;22.58;;;13.77;;
43098;SDS011;28715;51.988;6.020;2023-01-28T15:25:50;19.88;;;12.98;;
43098;SDS011;28715;51.988;6.020;2023-01-28T15:28:19;21.40;;;14.30;;
43098;SDS011;28715;51.988;6.020;2023-01-28T15:30:54;20.20;;;12.90;;
43098;SDS011;28715;51.988;6.020;2023-01-28T15:33:21;22.52;;;14.30;;
43098;SDS011;28715;51.988;6.020;2023-01-28T15:35:54;21.92;;;14.00;;
43098;SDS011;28715;51.988;6.020;2023-01-28T15:38:22;22.45;;;13.82;;
43098;SDS011;28715;51.988;6.020;2023-01-28T15:40:54;21.13;;;12.13;;
43098;SDS011;28715;51.988;6.020;2023-01-28T15:43:26;21.42;;;12.98;;
43098;SDS011;28715;51.988;6.020;2023-01-28T15:45:54;28.33;;;19.75;;
43098;SDS011;28715;51.988;6.020;2023-01-28T15:48:25;23.23;;;15.00;;
43098;SDS011;28715;51.988;6.020;2023-01-28T15:53:32;21.35;;;12.32;;
43098;SDS011;28715;51.988;6.020;2023-01-28T15:56:22;20.10;;;13.30;;
43098;SDS011;28715;51.988;6.020;2023-01-28T15:58:53;20.67;;;12.60;;
43098;SDS011;28715;51.988;6.020;2023-01-28T16:01:20;22.15;;;13.68;;
43098;SDS011;28715;51.988;6.020;2023-01-28T16:03:58;21.55;;;13.50;;
43098;SDS011;28715;51.988;6.020;2023-01-28T16:06:28;28.23;;;16.98;;
43098;SDS011;28715;51.988;6.020;2023-01-28T16:08:59;24.90;;;15.70;;
43098;SDS011;28715;51.988;6.020;2023-01-28T16:11:36;22.35;;;13.13;;
43098;SDS011;28715;51.988;6.020;2023-01-28T16:16:48;26.55;;;16.33;;
43098;SDS011;28715;51.988;6.020;2023-01-28T16:19:20;23.60;;;14.55;;
43098;SDS011;28715;51.988;6.020;2023-01-28T16:21:55;25.90;;;16.40;;
43098;SDS011;28715;51.988;6.020;2023-01-28T16:24:26;28.00;;;17.80;;
43098;SDS011;28715;51.988;6.020;2023-01-28T16:29:29;25.52;;;13.75;;
43098;SDS011;28715;51.988;6.020;2023-01-28T16:31:55;27.25;;;14.80;;
43098;SDS011;28715;51.988;6.020;2023-01-28T16:34:21;26.93;;;15.03;;
43098;SDS011;28715;51.988;6.020;2023-01-28T16:36:47;26.97;;;14.97;;
43098;SDS011;28715;51.988;6.020;2023-01-28T16:39:12;27.30;;;15.00;;
43098;SDS011;28715;51.988;6.020;2023-01-28T16:41:39;28.00;;;15.40;;
43098;SDS011;28715;51.988;6.020;2023-01-28T16:44:09;28.20;;;16.17;;
43098;SDS011;28715;51.988;6.020;2023-01-28T16:46:37;30.02;;;16.75;;
43098;SDS011;28715;51.988;6.020;2023-01-28T16:49:03;28.43;;;16.10;;
43098;SDS011;28715;51.988;6.020;2023-01-28T16:51:29;28.07;;;15.70;;
43098;SDS011;28715;51.988;6.020;2023-01-28T16:53:55;30.40;;;16.83;;
43098;SDS011;28715;51.988;6.020;2023-01-28T16:56:22;30.40;;;16.08;;